sensor_id;sensor_type;location;lat;lon;timestamp;P1;durP1;ratioP1;P2;durP2;ratioP2
9254;SDS011;4663;49.120;9.730;2023-08-01T00:01:02;56.55;;;53.42;;
9254;SDS011;4663;49.120;9.730;2023-08-01T00:03:28;56.00;;;52.95;;
9254;SDS011;4663;49.120;9.730;2023-08-01T00:05:53;53.70;;;50.95;;
9254;SDS011;4663;49.120;9.730;2023-08-01T00:08:20;51.67;;;48.83;;
9254;SDS011;4663;49.120;9.730;2023-08-01T00:10:46;51.83;;;48.78;;
9254;SDS011;4663;49.120;9.730;2023-08-01T00:13:11;46.75;;;44.30;;
9254;SDS011;4663;49.120;9.730;2023-08-01T00:15:37;46.88;;;44.35;;
9254;SDS011;4663;49.120;9.730;2023-08-01T00:18:02;44.42;;;42.03;;
9254;SDS011;4663;49.120;9.730;2023-08-01T00:20:28;41.75;;;39.55;;
9254;SDS011;4663;49.120;9.730;2023-08-01T00:22:53;40.60;;;38.28;;
9254;SDS011;4663;49.120;9.730;2023-08-01T00:25:19;42.55;;;40.10;;
9254;SDS011;4663;49.120;9.730;2023-08-01T00:27:44;42.05;;;39.85;;
9254;SDS011;4663;49.120;9.730;2023-08-01T00:30:10;44.50;;;42.15;;
9254;SDS011;4663;49.120;9.730;2023-08-01T00:32:35;42.67;;;40.30;;
9254;SDS011;4663;49.120;9.730;2023-08-01T00:35:01;42.05;;;39.65;;
9254;SDS011;4663;49.120;9.730;2023-08-01T00:37:26;44.35;;;41.85;;
9254;SDS011;4663;49.120;9.730;2023-08-01T00:39:52;48.03;;;45.38;;
9254;SDS011;4663;49.120;9.730;2023-08-01T00:42:17;43.88;;;41.70;;
9254;SDS011;4663;49.120;9.730;2023-08-01T00:44:43;46.13;;;43.53;;
9254;SDS011;4663;49.120;9.730;2023-08-01T00:47:08;48.35;;;45.72;;
9254;SDS011;4663;49.120;9.730;2023-08-01T00:49:35;46.50;;;43.88;;
9254;SDS011;4663;49.120;9.730;2023-08-01T00:52:00;49.25;;;46.35;;
9254;SDS011;4663;49.120;9.730;2023-08-01T00:54:25;47.25;;;44.78;;
9254;SDS011;4663;49.120;9.730;2023-08-01T00:56:51;48.33;;;45.38;;
9254;SDS011;4663;49.120;9.730;2023-08-01T00:59:17;48.50;;;45.85;;
9254;SDS011;4663;49.120;9.730;2023-08-01T01:01:42;47.03;;;44.58;;
9254;SDS011;4663;49.120;9.730;2023-08-01T01:04:08;47.75;;;44.75;;
9254;SDS011;4663;49.120;9.730;2023-08-01T01:09:34;50.33;;;47.80;;
9254;SDS011;4663;49.120;9.730;2023-08-01T01:12:00;48.00;;;45.35;;
9254;SDS011;4663;49.120;9.730;2023-08-01T01:14:29;48.95;;;46.30;;
9254;SDS011;4663;49.120;9.730;2023-08-01T01:16:54;49.90;;;47.17;;
9254;SDS011;4663;49.120;9.730;2023-08-01T01:19:20;48.55;;;45.72;;
9254;SDS011;4663;49.120;9.730;2023-08-01T01:21:46;52.13;;;49.33;;
9254;SDS011;4663;49.120;9.730;2023-08-01T01:24:13;52.28;;;49.00;;
9254;SDS011;4663;49.120;9.730;2023-08-01T01:26:42;50.17;;;47.38;;
9254;SDS011;4663;49.120;9.730;2023-08-01T01:29:08;50.67;;;47.83;;
9254;SDS011;4663;49.120;9.730;2023-08-01T01:31:34;51.95;;;49.08;;
9254;SDS011;4663;49.120;9.730;2023-08-01T01:34:01;53.67;;;50.85;;
9254;SDS011;4663;49.120;9.730;2023-08-01T01:36:28;54.83;;;52.08;;
9254;SDS011;4663;49.120;9.730;2023-08-01T01:38:54;54.17;;;50.83;;
9254;SDS011;4663;49.120;9.730;2023-08-01T01:41:19;57.38;;;54.38;;
9254;SDS011;4663;49.120;9.730;2023-08-01T01:43:45;58.78;;;55.83;;
9254;SDS011;4663;49.120;9.730;2023-08-01T01:46:10;60.38;;;57.35;;
9254;SDS011;4663;49.120;9.730;2023-08-01T01:48:35;55.45;;;52.40;;
9254;SDS011;4663;49.120;9.730;2023-08-01T01:51:01;61.13;;;57.92;;
9254;SDS011;4663;49.120;9.730;2023-08-01T01:53:26;58.47;;;55.38;;
9254;SDS011;4663;49.120;9.730;2023-08-01T01:55:51;60.67;;;57.42;;
9254;SDS011;4663;49.120;9.730;2023-08-01T01:58:17;56.17;;;53.15;;
9254;SDS011;4663;49.120;9.730;2023-08-01T02:00:42;57.42;;;54.45;;
9254;SDS011;4663;49.120;9.730;2023-08-01T02:03:07;63.80;;;60.40;;
9254;SDS011;4663;49.120;9.730;2023-08-01T02:05:35;59.17;;;56.03;;
9254;SDS011;4663;49.120;9.730;2023-08-01T02:08:01;60.08;;;56.85;;
9254;SDS011;4663;49.120;9.730;2023-08-01T02:10:26;61.50;;;58.17;;
9254;SDS011;4663;49.120;9.730;2023-08-01T02:12:52;57.25;;;54.13;;
9254;SDS011;4663;49.120;9.730;2023-08-01T02:15:17;57.35;;;54.30;;
9254;SDS011;4663;49.120;9.730;2023-08-01T02:17:42;57.90;;;54.60;;
9254;SDS011;4663;49.120;9.730;2023-08-01T02:20:08;59.17;;;55.80;;
9254;SDS011;4663;49.120;9.730;2023-08-01T02:22:33;57.40;;;53.97;;
9254;SDS011;4663;49.120;9.730;2023-08-01T02:24:59;59.17;;;56.10;;
9254;SDS011;4663;49.120;9.730;2023-08-01T02:27:24;58.58;;;55.47;;
9254;SDS011;4663;49.120;9.730;2023-08-01T02:29:50;58.92;;;55.70;;
9254;SDS011;4663;49.120;9.730;2023-08-01T02:32:15;60.35;;;57.03;;
9254;SDS011;4663;49.120;9.730;2023-08-01T02:34:41;56.05;;;52.92;;
9254;SDS011;4663;49.120;9.730;2023-08-01T02:37:07;56.88;;;53.97;;
9254;SDS011;4663;49.120;9.730;2023-08-01T02:39:32;59.28;;;55.97;;
9254;SDS011;4663;49.120;9.730;2023-08-01T02:41:57;55.05;;;51.95;;
9254;SDS011;4663;49.120;9.730;2023-08-01T02:44:23;54.85;;;51.83;;
9254;SDS011;4663;49.120;9.730;2023-08-01T02:46:48;54.83;;;51.95;;
9254;SDS011;4663;49.120;9.730;2023-08-01T02:49:13;55.63;;;52.38;;
9254;SDS011;4663;49.120;9.730;2023-08-01T02:51:39;56.80;;;53.78;;
9254;SDS011;4663;49.120;9.730;2023-08-01T02:54:04;57.00;;;53.90;;
9254;SDS011;4663;49.120;9.730;2023-08-01T02:56:29;50.88;;;47.90;;
9254;SDS011;4663;49.120;9.730;2023-08-01T02:58:55;56.80;;;53.67;;
9254;SDS011;4663;49.120;9.730;2023-08-01T03:01:20;55.60;;;52.75;;
9254;SDS011;4663;49.120;9.730;2023-08-01T03:03:46;56.30;;;53.00;;
9254;SDS011;4663;49.120;9.730;2023-08-01T03:06:11;56.40;;;53.17;;
9254;SDS011;4663;49.120;9.730;2023-08-01T03:08:37;56.03;;;53.08;;
9254;SDS011;4663;49.120;9.730;2023-08-01T03:11:03;55.38;;;52.42;;
9254;SDS011;4663;49.120;9.730;2023-08-01T03:13:28;55.40;;;52.17;;
9254;SDS011;4663;49.120;9.730;2023-08-01T03:15:54;52.00;;;49.00;;
9254;SDS011;4663;49.120;9.730;2023-08-01T03:18:19;56.83;;;53.88;;
9254;SDS011;4663;49.120;9.730;2023-08-01T03:20:44;57.65;;;54.65;;
9254;SDS011;4663;49.120;9.730;2023-08-01T03:23:10;54.35;;;51.28;;
9254;SDS011;4663;49.120;9.730;2023-08-01T03:25:35;53.15;;;50.45;;
9254;SDS011;4663;49.120;9.730;2023-08-01T03:28:00;55.58;;;52.78;;
9254;SDS011;4663;49.120;9.730;2023-08-01T03:30:26;56.08;;;53.17;;
9254;SDS011;4663;49.120;9.730;2023-08-01T03:32:51;58.47;;;55.20;;
9254;SDS011;4663;49.120;9.730;2023-08-01T03:35:17;59.03;;;56.05;;
9254;SDS011;4663;49.120;9.730;2023-08-01T03:37:43;55.75;;;52.67;;
9254;SDS011;4663;49.120;9.730;2023-08-01T03:40:08;58.47;;;54.95;;
9254;SDS011;4663;49.120;9.730;2023-08-01T03:42:34;54.80;;;52.05;;
9254;SDS011;4663;49.120;9.730;2023-08-01T03:45:00;57.28;;;53.58;;
9254;SDS011;4663;49.120;9.730;2023-08-01T03:47:25;53.47;;;50.85;;
9254;SDS011;4663;49.120;9.730;2023-08-01T03:49:51;71.80;;;68.22;;
9254;SDS011;4663;49.120;9.730;2023-08-01T03:52:16;51.05;;;48.40;;
9254;SDS011;4663;49.120;9.730;2023-08-01T03:54:41;55.08;;;52.13;;
9254;SDS011;4663;49.120;9.730;2023-08-01T03:57:07;56.92;;;53.25;;
9254;SDS011;4663;49.120;9.730;2023-08-01T03:59:32;56.90;;;53.47;;
9254;SDS011;4663;49.120;9.730;2023-08-01T04:01:57;57.13;;;53.97;;
9254;SDS011;4663;49.120;9.730;2023-08-01T04:04:23;53.92;;;51.08;;
9254;SDS011;4663;49.120;9.730;2023-08-01T04:06:48;57.17;;;54.25;;
9254;SDS011;4663;49.120;9.730;2023-08-01T04:09:13;55.22;;;51.97;;
9254;SDS011;4663;49.120;9.730;2023-08-01T04:11:39;60.17;;;56.83;;
9254;SDS011;4663;49.120;9.730;2023-08-01T04:14:04;56.50;;;53.45;;
9254;SDS011;4663;49.120;9.730;2023-08-01T04:16:30;55.83;;;52.50;;
9254;SDS011;4663;49.120;9.730;2023-08-01T04:18:55;58.38;;;55.10;;
9254;SDS011;4663;49.120;9.730;2023-08-01T04:21:21;57.17;;;54.20;;
9254;SDS011;4663;49.120;9.730;2023-08-01T04:23:46;57.42;;;54.53;;
9254;SDS011;4663;49.120;9.730;2023-08-01T04:26:11;61.38;;;58.20;;
9254;SDS011;4663;49.120;9.730;2023-08-01T04:28:37;55.03;;;51.67;;
9254;SDS011;4663;49.120;9.730;2023-08-01T04:31:02;58.20;;;55.25;;
9254;SDS011;4663;49.120;9.730;2023-08-01T04:33:28;55.08;;;52.22;;
9254;SDS011;4663;49.120;9.730;2023-08-01T04:35:53;53.30;;;50.38;;
9254;SDS011;4663;49.120;9.730;2023-08-01T04:38:19;54.03;;;51.05;;
9254;SDS011;4663;49.120;9.730;2023-08-01T04:40:44;54.78;;;52.03;;
9254;SDS011;4663;49.120;9.730;2023-08-01T04:43:12;55.22;;;51.88;;
9254;SDS011;4663;49.120;9.730;2023-08-01T04:45:39;54.00;;;51.25;;
9254;SDS011;4663;49.120;9.730;2023-08-01T04:48:04;55.67;;;52.60;;
9254;SDS011;4663;49.120;9.730;2023-08-01T04:50:29;54.30;;;51.47;;
9254;SDS011;4663;49.120;9.730;2023-08-01T04:52:55;56.42;;;53.33;;
9254;SDS011;4663;49.120;9.730;2023-08-01T04:55:20;59.67;;;56.45;;
9254;SDS011;4663;49.120;9.730;2023-08-01T04:57:46;60.80;;;57.55;;
9254;SDS011;4663;49.120;9.730;2023-08-01T05:00:11;59.28;;;56.13;;
9254;SDS011;4663;49.120;9.730;2023-08-01T05:02:37;60.35;;;57.20;;
9254;SDS011;4663;49.120;9.730;2023-08-01T05:05:02;60.10;;;56.38;;
9254;SDS011;4663;49.120;9.730;2023-08-01T05:07:29;60.40;;;57.30;;
9254;SDS011;4663;49.120;9.730;2023-08-01T05:09:54;59.72;;;56.70;;
9254;SDS011;4663;49.120;9.730;2023-08-01T05:12:19;59.47;;;56.35;;
9254;SDS011;4663;49.120;9.730;2023-08-01T05:14:45;55.17;;;52.25;;
9254;SDS011;4663;49.120;9.730;2023-08-01T05:17:10;52.35;;;49.63;;
9254;SDS011;4663;49.120;9.730;2023-08-01T05:19:36;53.42;;;50.47;;
9254;SDS011;4663;49.120;9.730;2023-08-01T05:22:01;53.10;;;50.40;;
9254;SDS011;4663;49.120;9.730;2023-08-01T05:24:26;54.78;;;51.83;;
9254;SDS011;4663;49.120;9.730;2023-08-01T05:26:52;52.13;;;49.03;;
9254;SDS011;4663;49.120;9.730;2023-08-01T05:29:17;51.65;;;49.00;;
9254;SDS011;4663;49.120;9.730;2023-08-01T05:31:43;50.28;;;47.63;;
9254;SDS011;4663;49.120;9.730;2023-08-01T05:34:08;49.65;;;46.60;;
9254;SDS011;4663;49.120;9.730;2023-08-01T05:36:33;55.28;;;51.50;;
9254;SDS011;4663;49.120;9.730;2023-08-01T05:38:59;52.90;;;49.88;;
9254;SDS011;4663;49.120;9.730;2023-08-01T05:41:24;53.22;;;50.47;;
9254;SDS011;4663;49.120;9.730;2023-08-01T05:43:49;56.17;;;53.03;;
9254;SDS011;4663;49.120;9.730;2023-08-01T05:46:15;55.17;;;52.22;;
9254;SDS011;4663;49.120;9.730;2023-08-01T05:48:41;56.22;;;53.38;;
9254;SDS011;4663;49.120;9.730;2023-08-01T05:51:06;53.90;;;50.85;;
9254;SDS011;4663;49.120;9.730;2023-08-01T05:53:31;56.83;;;53.83;;
9254;SDS011;4663;49.120;9.730;2023-08-01T05:55:57;57.95;;;54.70;;
9254;SDS011;4663;49.120;9.730;2023-08-01T05:58:22;57.17;;;54.17;;
9254;SDS011;4663;49.120;9.730;2023-08-01T06:00:48;60.30;;;57.05;;
9254;SDS011;4663;49.120;9.730;2023-08-01T06:03:13;60.00;;;56.92;;
9254;SDS011;4663;49.120;9.730;2023-08-01T06:05:39;61.67;;;58.45;;
9254;SDS011;4663;49.120;9.730;2023-08-01T06:08:06;61.35;;;57.50;;
9254;SDS011;4663;49.120;9.730;2023-08-01T06:10:31;59.50;;;56.53;;
9254;SDS011;4663;49.120;9.730;2023-08-01T06:12:57;63.70;;;60.28;;
9254;SDS011;4663;49.120;9.730;2023-08-01T06:15:22;60.13;;;57.10;;
9254;SDS011;4663;49.120;9.730;2023-08-01T06:17:48;60.33;;;57.25;;
9254;SDS011;4663;49.120;9.730;2023-08-01T06:20:13;59.63;;;56.58;;
9254;SDS011;4663;49.120;9.730;2023-08-01T06:22:39;58.67;;;55.72;;
9254;SDS011;4663;49.120;9.730;2023-08-01T06:25:04;60.33;;;57.28;;
9254;SDS011;4663;49.120;9.730;2023-08-01T06:27:30;57.80;;;54.83;;
9254;SDS011;4663;49.120;9.730;2023-08-01T06:29:55;54.83;;;51.67;;
9254;SDS011;4663;49.120;9.730;2023-08-01T06:32:20;53.75;;;50.88;;
9254;SDS011;4663;49.120;9.730;2023-08-01T06:34:46;68.25;;;64.57;;
9254;SDS011;4663;49.120;9.730;2023-08-01T06:37:11;56.17;;;53.10;;
9254;SDS011;4663;49.120;9.730;2023-08-01T06:39:36;56.17;;;53.00;;
9254;SDS011;4663;49.120;9.730;2023-08-01T06:42:02;57.50;;;54.35;;
9254;SDS011;4663;49.120;9.730;2023-08-01T06:44:28;54.97;;;51.83;;
9254;SDS011;4663;49.120;9.730;2023-08-01T06:46:53;49.85;;;47.05;;
9254;SDS011;4663;49.120;9.730;2023-08-01T06:49:19;48.08;;;45.50;;
9254;SDS011;4663;49.120;9.730;2023-08-01T06:51:44;47.05;;;44.33;;
9254;SDS011;4663;49.120;9.730;2023-08-01T06:54:09;47.83;;;44.97;;
9254;SDS011;4663;49.120;9.730;2023-08-01T06:56:35;42.03;;;39.55;;
9254;SDS011;4663;49.120;9.730;2023-08-01T06:59:00;40.63;;;38.22;;
9254;SDS011;4663;49.120;9.730;2023-08-01T07:01:25;37.63;;;35.42;;
9254;SDS011;4663;49.120;9.730;2023-08-01T07:03:51;40.75;;;38.65;;
9254;SDS011;4663;49.120;9.730;2023-08-01T07:06:17;39.30;;;37.22;;
9254;SDS011;4663;49.120;9.730;2023-08-01T07:08:43;42.47;;;40.10;;
9254;SDS011;4663;49.120;9.730;2023-08-01T07:11:08;41.97;;;39.63;;
9254;SDS011;4663;49.120;9.730;2023-08-01T07:13:34;43.47;;;40.90;;
9254;SDS011;4663;49.120;9.730;2023-08-01T07:15:59;51.08;;;48.35;;
9254;SDS011;4663;49.120;9.730;2023-08-01T07:18:25;50.50;;;47.88;;
9254;SDS011;4663;49.120;9.730;2023-08-01T07:21:03;51.90;;;49.15;;
9254;SDS011;4663;49.120;9.730;2023-08-01T07:23:29;53.00;;;50.20;;
9254;SDS011;4663;49.120;9.730;2023-08-01T07:25:55;57.85;;;54.60;;
9254;SDS011;4663;49.120;9.730;2023-08-01T07:28:21;59.08;;;55.08;;
9254;SDS011;4663;49.120;9.730;2023-08-01T07:30:46;58.35;;;55.30;;
9254;SDS011;4663;49.120;9.730;2023-08-01T07:33:12;59.38;;;56.33;;
9254;SDS011;4663;49.120;9.730;2023-08-01T07:35:37;61.10;;;57.95;;
9254;SDS011;4663;49.120;9.730;2023-08-01T07:38:02;60.65;;;57.60;;
9254;SDS011;4663;49.120;9.730;2023-08-01T07:40:28;62.17;;;58.65;;
9254;SDS011;4663;49.120;9.730;2023-08-01T07:42:53;65.03;;;61.67;;
9254;SDS011;4663;49.120;9.730;2023-08-01T07:45:18;69.28;;;65.72;;
9254;SDS011;4663;49.120;9.730;2023-08-01T07:47:44;67.60;;;64.07;;
9254;SDS011;4663;49.120;9.730;2023-08-01T07:50:10;67.28;;;63.75;;
9254;SDS011;4663;49.120;9.730;2023-08-01T07:52:35;67.00;;;63.60;;
9254;SDS011;4663;49.120;9.730;2023-08-01T07:55:01;64.88;;;61.50;;
9254;SDS011;4663;49.120;9.730;2023-08-01T07:57:27;66.43;;;62.95;;
9254;SDS011;4663;49.120;9.730;2023-08-01T07:59:52;63.92;;;60.63;;
9254;SDS011;4663;49.120;9.730;2023-08-01T08:02:17;65.07;;;61.72;;
9254;SDS011;4663;49.120;9.730;2023-08-01T08:04:43;68.82;;;65.53;;
9254;SDS011;4663;49.120;9.730;2023-08-01T08:07:08;66.93;;;63.05;;
9254;SDS011;4663;49.120;9.730;2023-08-01T08:09:33;70.05;;;66.53;;
9254;SDS011;4663;49.120;9.730;2023-08-01T08:11:59;93.75;;;89.10;;
9254;SDS011;4663;49.120;9.730;2023-08-01T08:14:24;67.05;;;63.58;;
9254;SDS011;4663;49.120;9.730;2023-08-01T08:16:50;64.00;;;60.72;;
9254;SDS011;4663;49.120;9.730;2023-08-01T08:19:16;68.53;;;64.78;;
9254;SDS011;4663;49.120;9.730;2023-08-01T08:21:41;68.55;;;65.15;;
9254;SDS011;4663;49.120;9.730;2023-08-01T08:24:06;66.93;;;63.53;;
9254;SDS011;4663;49.120;9.730;2023-08-01T08:26:32;65.05;;;61.85;;
9254;SDS011;4663;49.120;9.730;2023-08-01T08:29:02;67.22;;;63.78;;
9254;SDS011;4663;49.120;9.730;2023-08-01T08:31:27;63.45;;;60.13;;
9254;SDS011;4663;49.120;9.730;2023-08-01T08:33:53;64.45;;;61.20;;
9254;SDS011;4663;49.120;9.730;2023-08-01T08:36:18;60.88;;;57.67;;
9254;SDS011;4663;49.120;9.730;2023-08-01T08:38:43;60.30;;;57.25;;
9254;SDS011;4663;49.120;9.730;2023-08-01T08:41:10;50.47;;;47.83;;
9254;SDS011;4663;49.120;9.730;2023-08-01T08:43:38;50.15;;;47.55;;
9254;SDS011;4663;49.120;9.730;2023-08-01T08:46:06;47.15;;;44.70;;
9254;SDS011;4663;49.120;9.730;2023-08-01T08:48:33;41.60;;;39.25;;
9254;SDS011;4663;49.120;9.730;2023-08-01T08:51:00;34.70;;;32.47;;
9254;SDS011;4663;49.120;9.730;2023-08-01T08:53:28;30.90;;;29.25;;
9254;SDS011;4663;49.120;9.730;2023-08-01T08:55:55;27.55;;;26.00;;
9254;SDS011;4663;49.120;9.730;2023-08-01T08:58:21;26.25;;;24.83;;
9254;SDS011;4663;49.120;9.730;2023-08-01T09:00:47;28.13;;;26.60;;
9254;SDS011;4663;49.120;9.730;2023-08-01T09:03:13;29.25;;;27.75;;
9254;SDS011;4663;49.120;9.730;2023-08-01T09:05:40;29.88;;;28.30;;
9254;SDS011;4663;49.120;9.730;2023-08-01T09:08:13;26.58;;;24.98;;
9254;SDS011;4663;49.120;9.730;2023-08-01T09:10:42;26.48;;;25.02;;
9254;SDS011;4663;49.120;9.730;2023-08-01T09:13:08;24.50;;;23.25;;
9254;SDS011;4663;49.120;9.730;2023-08-01T09:15:34;26.30;;;24.83;;
9254;SDS011;4663;49.120;9.730;2023-08-01T09:18:05;24.70;;;23.38;;
9254;SDS011;4663;49.120;9.730;2023-08-01T09:20:39;26.52;;;25.13;;
9254;SDS011;4663;49.120;9.730;2023-08-01T09:23:07;27.23;;;25.77;;
9254;SDS011;4663;49.120;9.730;2023-08-01T09:25:34;27.55;;;26.10;;
9254;SDS011;4663;49.120;9.730;2023-08-01T09:28:00;25.27;;;23.98;;
9254;SDS011;4663;49.120;9.730;2023-08-01T09:30:25;26.10;;;24.67;;
9254;SDS011;4663;49.120;9.730;2023-08-01T09:32:56;27.25;;;25.70;;
9254;SDS011;4663;49.120;9.730;2023-08-01T09:35:22;27.13;;;25.75;;
9254;SDS011;4663;49.120;9.730;2023-08-01T09:37:48;24.92;;;23.65;;
9254;SDS011;4663;49.120;9.730;2023-08-01T09:40:14;24.25;;;23.10;;
9254;SDS011;4663;49.120;9.730;2023-08-01T09:42:41;26.23;;;24.67;;
9254;SDS011;4663;49.120;9.730;2023-08-01T09:45:12;26.88;;;25.15;;
9254;SDS011;4663;49.120;9.730;2023-08-01T09:47:42;28.38;;;26.83;;
9254;SDS011;4663;49.120;9.730;2023-08-01T09:50:08;30.95;;;29.25;;
9254;SDS011;4663;49.120;9.730;2023-08-01T09:52:36;35.85;;;34.10;;
9254;SDS011;4663;49.120;9.730;2023-08-01T09:55:01;38.13;;;36.33;;
9254;SDS011;4663;49.120;9.730;2023-08-01T09:57:28;37.67;;;35.88;;
9254;SDS011;4663;49.120;9.730;2023-08-01T09:59:55;37.15;;;35.35;;
9254;SDS011;4663;49.120;9.730;2023-08-01T10:02:22;34.70;;;33.03;;
9254;SDS011;4663;49.120;9.730;2023-08-01T10:04:49;33.38;;;31.67;;
9254;SDS011;4663;49.120;9.730;2023-08-01T10:07:17;26.48;;;25.23;;
9254;SDS011;4663;49.120;9.730;2023-08-01T10:09:48;26.08;;;24.67;;
9254;SDS011;4663;49.120;9.730;2023-08-01T10:12:14;21.23;;;20.23;;
9254;SDS011;4663;49.120;9.730;2023-08-01T10:14:43;23.55;;;22.45;;
9254;SDS011;4663;49.120;9.730;2023-08-01T10:17:08;23.63;;;22.33;;
9254;SDS011;4663;49.120;9.730;2023-08-01T10:19:36;22.67;;;21.65;;
9254;SDS011;4663;49.120;9.730;2023-08-01T10:22:03;24.45;;;23.00;;
9254;SDS011;4663;49.120;9.730;2023-08-01T10:24:31;22.30;;;21.30;;
9254;SDS011;4663;49.120;9.730;2023-08-01T10:26:57;21.52;;;20.55;;
9254;SDS011;4663;49.120;9.730;2023-08-01T10:29:34;21.00;;;20.05;;
9254;SDS011;4663;49.120;9.730;2023-08-01T10:32:00;20.80;;;19.88;;
9254;SDS011;4663;49.120;9.730;2023-08-01T10:34:25;20.52;;;19.52;;
9254;SDS011;4663;49.120;9.730;2023-08-01T10:36:57;20.88;;;19.77;;
9254;SDS011;4663;49.120;9.730;2023-08-01T10:39:24;19.25;;;18.35;;
9254;SDS011;4663;49.120;9.730;2023-08-01T10:42:00;20.10;;;19.20;;
9254;SDS011;4663;49.120;9.730;2023-08-01T10:44:27;20.38;;;19.38;;
9254;SDS011;4663;49.120;9.730;2023-08-01T10:49:32;19.33;;;18.42;;
9254;SDS011;4663;49.120;9.730;2023-08-01T10:51:59;18.92;;;18.00;;
9254;SDS011;4663;49.120;9.730;2023-08-01T10:54:25;22.10;;;21.05;;
9254;SDS011;4663;49.120;9.730;2023-08-01T10:56:51;25.33;;;24.15;;
9254;SDS011;4663;49.120;9.730;2023-08-01T10:59:18;24.27;;;23.17;;
9254;SDS011;4663;49.120;9.730;2023-08-01T11:01:51;26.75;;;25.52;;
9254;SDS011;4663;49.120;9.730;2023-08-01T11:04:19;26.75;;;25.52;;
9254;SDS011;4663;49.120;9.730;2023-08-01T11:06:46;28.98;;;27.63;;
9254;SDS011;4663;49.120;9.730;2023-08-01T11:09:23;30.27;;;28.88;;
9254;SDS011;4663;49.120;9.730;2023-08-01T11:11:51;27.67;;;26.40;;
9254;SDS011;4663;49.120;9.730;2023-08-01T11:14:21;26.63;;;25.42;;
9254;SDS011;4663;49.120;9.730;2023-08-01T11:16:48;24.85;;;23.63;;
9254;SDS011;4663;49.120;9.730;2023-08-01T11:19:24;25.17;;;24.00;;
9254;SDS011;4663;49.120;9.730;2023-08-01T11:21:53;27.70;;;26.23;;
9254;SDS011;4663;49.120;9.730;2023-08-01T11:24:23;25.02;;;23.88;;
9254;SDS011;4663;49.120;9.730;2023-08-01T11:26:50;26.30;;;25.10;;
9254;SDS011;4663;49.120;9.730;2023-08-01T11:29:17;25.23;;;23.92;;
9254;SDS011;4663;49.120;9.730;2023-08-01T11:31:53;25.30;;;24.08;;
9254;SDS011;4663;49.120;9.730;2023-08-01T11:34:18;24.05;;;22.92;;
9254;SDS011;4663;49.120;9.730;2023-08-01T11:36:44;23.33;;;22.25;;
9254;SDS011;4663;49.120;9.730;2023-08-01T11:39:11;22.00;;;20.98;;
9254;SDS011;4663;49.120;9.730;2023-08-01T11:41:37;22.00;;;20.95;;
9254;SDS011;4663;49.120;9.730;2023-08-01T11:44:04;23.17;;;22.05;;
9254;SDS011;4663;49.120;9.730;2023-08-01T11:46:33;24.63;;;23.38;;
9254;SDS011;4663;49.120;9.730;2023-08-01T11:49:00;23.55;;;22.40;;
9254;SDS011;4663;49.120;9.730;2023-08-01T11:51:26;22.85;;;21.75;;
9254;SDS011;4663;49.120;9.730;2023-08-01T11:54:02;23.35;;;22.05;;
9254;SDS011;4663;49.120;9.730;2023-08-01T11:56:29;21.35;;;20.35;;
9254;SDS011;4663;49.120;9.730;2023-08-01T11:58:55;23.17;;;22.08;;
9254;SDS011;4663;49.120;9.730;2023-08-01T12:01:21;21.45;;;20.48;;
9254;SDS011;4663;49.120;9.730;2023-08-01T12:06:12;23.75;;;22.42;;
9254;SDS011;4663;49.120;9.730;2023-08-01T12:08:39;23.55;;;22.45;;
9254;SDS011;4663;49.120;9.730;2023-08-01T12:11:06;49.55;;;47.17;;
9254;SDS011;4663;49.120;9.730;2023-08-01T12:14:01;29.77;;;28.20;;
9254;SDS011;4663;49.120;9.730;2023-08-01T12:16:32;21.90;;;20.85;;
9254;SDS011;4663;49.120;9.730;2023-08-01T12:18:58;20.42;;;19.45;;
9254;SDS011;4663;49.120;9.730;2023-08-01T12:21:23;22.77;;;21.65;;
9254;SDS011;4663;49.120;9.730;2023-08-01T12:23:49;20.77;;;19.80;;
9254;SDS011;4663;49.120;9.730;2023-08-01T12:26:14;21.00;;;20.02;;
9254;SDS011;4663;49.120;9.730;2023-08-01T12:28:40;22.92;;;21.67;;
9254;SDS011;4663;49.120;9.730;2023-08-01T12:31:05;26.00;;;24.83;;
9254;SDS011;4663;49.120;9.730;2023-08-01T12:33:31;28.02;;;26.58;;
9254;SDS011;4663;49.120;9.730;2023-08-01T12:35:57;34.15;;;32.55;;
9254;SDS011;4663;49.120;9.730;2023-08-01T12:38:23;28.52;;;27.23;;
9254;SDS011;4663;49.120;9.730;2023-08-01T12:40:48;25.45;;;24.15;;
9254;SDS011;4663;49.120;9.730;2023-08-01T12:43:14;22.02;;;20.83;;
9254;SDS011;4663;49.120;9.730;2023-08-01T12:45:41;20.13;;;18.95;;
9254;SDS011;4663;49.120;9.730;2023-08-01T12:48:07;21.77;;;20.73;;
9254;SDS011;4663;49.120;9.730;2023-08-01T12:50:32;23.63;;;22.52;;
9254;SDS011;4663;49.120;9.730;2023-08-01T12:52:57;24.05;;;22.92;;
9254;SDS011;4663;49.120;9.730;2023-08-01T12:55:23;25.08;;;23.88;;
9254;SDS011;4663;49.120;9.730;2023-08-01T12:57:48;27.38;;;26.08;;
9254;SDS011;4663;49.120;9.730;2023-08-01T13:00:13;24.52;;;23.38;;
9254;SDS011;4663;49.120;9.730;2023-08-01T13:02:39;24.52;;;23.42;;
9254;SDS011;4663;49.120;9.730;2023-08-01T13:05:05;24.25;;;23.10;;
9254;SDS011;4663;49.120;9.730;2023-08-01T13:07:30;24.38;;;23.15;;
9254;SDS011;4663;49.120;9.730;2023-08-01T13:09:57;23.58;;;22.48;;
9254;SDS011;4663;49.120;9.730;2023-08-01T13:12:23;24.25;;;22.95;;
9254;SDS011;4663;49.120;9.730;2023-08-01T13:14:49;24.20;;;23.08;;
9254;SDS011;4663;49.120;9.730;2023-08-01T13:17:14;24.27;;;23.17;;
9254;SDS011;4663;49.120;9.730;2023-08-01T13:19:40;24.88;;;23.35;;
9254;SDS011;4663;49.120;9.730;2023-08-01T13:22:05;26.60;;;25.40;;
9254;SDS011;4663;49.120;9.730;2023-08-01T13:24:31;25.08;;;23.77;;
9254;SDS011;4663;49.120;9.730;2023-08-01T13:26:57;25.23;;;23.85;;
9254;SDS011;4663;49.120;9.730;2023-08-01T13:29:22;23.98;;;22.88;;
9254;SDS011;4663;49.120;9.730;2023-08-01T13:31:48;24.98;;;23.67;;
9254;SDS011;4663;49.120;9.730;2023-08-01T13:34:13;26.10;;;24.70;;
9254;SDS011;4663;49.120;9.730;2023-08-01T13:36:39;26.27;;;24.85;;
9254;SDS011;4663;49.120;9.730;2023-08-01T13:39:04;25.00;;;23.83;;
9254;SDS011;4663;49.120;9.730;2023-08-01T13:41:30;26.27;;;25.08;;
9254;SDS011;4663;49.120;9.730;2023-08-01T13:43:57;24.35;;;23.05;;
9254;SDS011;4663;49.120;9.730;2023-08-01T13:46:22;25.92;;;24.73;;
9254;SDS011;4663;49.120;9.730;2023-08-01T13:48:48;26.63;;;24.95;;
9254;SDS011;4663;49.120;9.730;2023-08-01T13:51:13;26.20;;;24.90;;
9254;SDS011;4663;49.120;9.730;2023-08-01T13:53:39;25.23;;;24.02;;
9254;SDS011;4663;49.120;9.730;2023-08-01T13:56:07;28.00;;;26.70;;
9254;SDS011;4663;49.120;9.730;2023-08-01T13:58:39;24.73;;;23.40;;
9254;SDS011;4663;49.120;9.730;2023-08-01T14:01:05;26.63;;;25.10;;
9254;SDS011;4663;49.120;9.730;2023-08-01T14:03:38;24.92;;;23.63;;
9254;SDS011;4663;49.120;9.730;2023-08-01T14:06:08;25.88;;;24.48;;
9254;SDS011;4663;49.120;9.730;2023-08-01T14:08:34;22.73;;;21.63;;
9254;SDS011;4663;49.120;9.730;2023-08-01T14:11:03;25.40;;;24.20;;
9254;SDS011;4663;49.120;9.730;2023-08-01T14:13:30;24.00;;;22.80;;
9254;SDS011;4663;49.120;9.730;2023-08-01T14:15:55;24.60;;;23.48;;
9254;SDS011;4663;49.120;9.730;2023-08-01T14:18:21;26.67;;;25.38;;
9254;SDS011;4663;49.120;9.730;2023-08-01T14:20:46;24.42;;;22.92;;
9254;SDS011;4663;49.120;9.730;2023-08-01T14:23:12;24.75;;;23.33;;
9254;SDS011;4663;49.120;9.730;2023-08-01T14:25:38;24.98;;;23.65;;
9254;SDS011;4663;49.120;9.730;2023-08-01T14:28:03;24.15;;;22.83;;
9254;SDS011;4663;49.120;9.730;2023-08-01T14:30:29;24.50;;;23.23;;
9254;SDS011;4663;49.120;9.730;2023-08-01T14:33:01;24.05;;;22.40;;
9254;SDS011;4663;49.120;9.730;2023-08-01T14:35:27;22.65;;;21.55;;
9254;SDS011;4663;49.120;9.730;2023-08-01T14:37:53;21.27;;;20.15;;
9254;SDS011;4663;49.120;9.730;2023-08-01T14:40:20;20.17;;;19.20;;
9254;SDS011;4663;49.120;9.730;2023-08-01T14:42:49;20.92;;;19.73;;
9254;SDS011;4663;49.120;9.730;2023-08-01T14:45:14;24.50;;;23.35;;
9254;SDS011;4663;49.120;9.730;2023-08-01T14:47:44;21.45;;;20.45;;
9254;SDS011;4663;49.120;9.730;2023-08-01T14:50:10;23.52;;;22.38;;